Terminal Aerodrome Forecast
Issued by NWS

Home | Current Version | Previous Version | Text Only | Print | Product List | Glossary On
Versions: 1 2 3 4 5 6 7 8 9 10 11 12 13 14
000
FTUS43 KIND 230500
TAFBMG
TAF
KBMG 230526Z 2306/2406 19009KT P6SM VCSH OVC050
     FM231200 15008KT P6SM OVC035
     FM231600 13010KT 4SM -RA BR OVC018
     FM232200 15012KT 3SM -RA BR OVC007 WS012/19045KT
      AMD LTD TO CLD VIS AND WIND TIL 231400=

USA.gov is the U.S. government's official web portal to all federal, state and local government web resources and services.